Dragoon, AZ (85609)

10:27 AM MST on February 27, 2015 (GMT -0700)
Golden Rule Vineyards | Change Station
CLOSE
Current Station
Personal Weather Station
Location: Cochise, AZ
Elevation: 4360 ft
Nearby Weather Stations

Elev 4360 ft 32.06 °N, 109.96 °W | Updated 18 seconds ago

Clear
Clear
57.9 °F
Feels Like 57.9 °F
N
4.0
Wind Variable Wind from NNE
Gusts 8.0 mph

Today
High -- | Low -- °F
--% Chance of Precip.
Yesterday
High -- | Low -- °F
Precip. -- in
6:49 AM 6:16 PM
Waxing Gibbous, 70% visible
Pressure 29.77 in
Visibility 10.0 miles
Clouds Few 24000 ft
Dew Point 27 °F
Humidity 30%
Rainfall 0.00 in
Snow Depth Not available.
UV 4 out of 12
Pollen 9.10 out of 12
Air Quality Not available.
Flu Activity Not available.
METAR KFHU 271655Z 16013G19KT 10SM FEW240 16/M05 A2987 RMK SLP080

More Conditions Fewer Conditions

Pressure 29.77 in
Visibility 10.0 miles
Clouds Few 24000 ft
Dew Point 27 °F
Humidity 30%
Rainfall 0.00 in
Snow Depth Not available.
UV 4 out of 12
Pollen 9.10 out of 12
Air Quality Not available.
Flu Activity Not available.
METAR KFHU 271655Z 16013G19KT 10SM FEW240 16/M05 A2987 RMK SLP080

More Conditions Fewer Conditions

10-Day Weather Forecast

Almanac

Astronomy

Feb. 27, 2015 Rise Set
Actual Time
Civil Twilight
Nautical Twilight
Astronomical Twilight
Moon
Length of Visible Light
Length of Day
Tomorrow will be .
, % of the Moon is Illuminated

Today's Extremes

State Highs State Lows

Community

WunderPhotos

Upload Photos

1,800,748 photos uploaded!

WunderBlogs® & News

Nearby

Air Quality

  Air Quality AQ Index Pollutant
Not available.

Snow Depth

Station Depth Elevation

Earthquake Activity

City Distance Mag. Time & Date
Minimum magnitude displayed is 2.5.

Coastal Water Temperatures

Place Temperature

Nearby Weather Stations